sensor_id;sensor_type;location;lat;lon;timestamp;pressure;altitude;pressure_sealevel;temperature;humidity
62458;BME280;48509;52.122;5.250;2023-03-01T00:01:13;103211.99999999999;;;0.48;93.85
62458;BME280;48509;52.122;5.250;2023-03-01T00:02:49;103215.00000000001;;;0.59;93.62
62458;BME280;48509;52.122;5.250;2023-03-01T00:04:26;103216.00000000001;;;0.57;94.09
62458;BME280;48509;52.122;5.250;2023-03-01T00:06:03;103213.00000000001;;;0.48;94.93
62458;BME280;48509;52.122;5.250;2023-03-01T00:09:16;103217.0;;;0.33;95.57
62458;BME280;48509;52.122;5.250;2023-03-01T00:11:03;103216.00000000001;;;0.45;94.6
62458;BME280;48509;52.122;5.250;2023-03-01T00:12:39;103211.99999999999;;;0.5;93.94
62458;BME280;48509;52.122;5.250;2023-03-01T00:15:52;103211.99999999999;;;0.34;94.27
62458;BME280;48509;52.122;5.250;2023-03-01T00:17:28;103218.0;;;0.29;94.84
62458;BME280;48509;52.122;5.250;2023-03-01T00:19:05;103213.00000000001;;;0.24;95.08
62458;BME280;48509;52.122;5.250;2023-03-01T00:20:41;103213.00000000001;;;0.18;95.47
62458;BME280;48509;52.122;5.250;2023-03-01T00:23:54;103211.99999999999;;;0.27;94.81
62458;BME280;48509;52.122;5.250;2023-03-01T00:25:31;103206.0;;;0.3;94.8
62458;BME280;48509;52.122;5.250;2023-03-01T00:27:07;103206.0;;;0.2;95.89
62458;BME280;48509;52.122;5.250;2023-03-01T00:30:20;103204.0;;;0.27;94.35
62458;BME280;48509;52.122;5.250;2023-03-01T00:31:56;103207.0;;;0.37;94.6
62458;BME280;48509;52.122;5.250;2023-03-01T00:33:32;103200.0;;;0.44;94.71
62458;BME280;48509;52.122;5.250;2023-03-01T00:36:46;103199.0;;;0.64;93.52
62458;BME280;48509;52.122;5.250;2023-03-01T00:38:22;103200.0;;;0.44;93.66
62458;BME280;48509;52.122;5.250;2023-03-01T00:39:58;103199.0;;;0.29;94.56
62458;BME280;48509;52.122;5.250;2023-03-01T00:41:34;103199.0;;;0.21;95.39
62458;BME280;48509;52.122;5.250;2023-03-01T00:44:46;103196.0;;;0.27;94.98
62458;BME280;48509;52.122;5.250;2023-03-01T00:46:24;103200.0;;;0.25;94.17
62458;BME280;48509;52.122;5.250;2023-03-01T00:48:02;103206.0;;;0.23;94.31
62458;BME280;48509;52.122;5.250;2023-03-01T00:51:16;103200.0;;;0.12;94.83
62458;BME280;48509;52.122;5.250;2023-03-01T00:52:54;103198.0;;;0.11;95.42
62458;BME280;48509;52.122;5.250;2023-03-01T00:54:30;103198.0;;;0.11;95.81
62458;BME280;48509;52.122;5.250;2023-03-01T00:57:45;103194.0;;;0.01;95.95
62458;BME280;48509;52.122;5.250;2023-03-01T00:59:22;103198.0;;;0.02;95.04
62458;BME280;48509;52.122;5.250;2023-03-01T01:00:58;103193.0;;;0.01;95.29
62458;BME280;48509;52.122;5.250;2023-03-01T01:02:34;103196.0;;;0.23;94.39
62458;BME280;48509;52.122;5.250;2023-03-01T01:05:49;103194.0;;;0.29;93.95
62458;BME280;48509;52.122;5.250;2023-03-01T01:07:25;103192.0;;;0.24;94.26
62458;BME280;48509;52.122;5.250;2023-03-01T01:09:03;103183.99999999999;;;0.35;93.75
62458;BME280;48509;52.122;5.250;2023-03-01T01:12:20;103189.00000000001;;;0.31;93.24
62458;BME280;48509;52.122;5.250;2023-03-01T01:13:57;103190.00000000001;;;0.06;94.41
62458;BME280;48509;52.122;5.250;2023-03-01T01:15:34;103186.99999999999;;;0.05;94.83
62458;BME280;48509;52.122;5.250;2023-03-01T01:17:10;103180.0;;;0.09;94.03
62458;BME280;48509;52.122;5.250;2023-03-01T01:20:22;103179.0;;;0.02;94.67
62458;BME280;48509;52.122;5.250;2023-03-01T01:21:58;103177.0;;;-0.04;95.84
62458;BME280;48509;52.122;5.250;2023-03-01T01:23:35;103170.0;;;-0.03;95.46
62458;BME280;48509;52.122;5.250;2023-03-01T01:26:48;103165.00000000001;;;0.06;95.34
62458;BME280;48509;52.122;5.250;2023-03-01T01:28:25;103158.0;;;-0.09;94.94
62458;BME280;48509;52.122;5.250;2023-03-01T01:30:01;103167.0;;;-0.07;94.58
62458;BME280;48509;52.122;5.250;2023-03-01T01:33:17;103165.00000000001;;;-0.03;94.69
62458;BME280;48509;52.122;5.250;2023-03-01T01:34:54;103156.0;;;-0.02;94.58
62458;BME280;48509;52.122;5.250;2023-03-01T01:36:30;103154.0;;;-0.11;94.49
62458;BME280;48509;52.122;5.250;2023-03-01T01:38:09;103149.0;;;0.01;94.61
62458;BME280;48509;52.122;5.250;2023-03-01T01:41:22;103151.0;;;-0.05;94.94
62458;BME280;48509;52.122;5.250;2023-03-01T01:42:59;103152.0;;;-0.1;95.12
62458;BME280;48509;52.122;5.250;2023-03-01T01:44:35;103152.0;;;-0.12;95.15
62458;BME280;48509;52.122;5.250;2023-03-01T01:47:59;103153.0;;;-0.03;95.1
62458;BME280;48509;52.122;5.250;2023-03-01T01:49:42;103152.0;;;0.1;94.17
62458;BME280;48509;52.122;5.250;2023-03-01T01:51:23;103152.0;;;0.03;94.26
62458;BME280;48509;52.122;5.250;2023-03-01T01:53:01;103149.0;;;-0.09;95.02
62458;BME280;48509;52.122;5.250;2023-03-01T01:56:22;103147.0;;;-0.11;95.46
62458;BME280;48509;52.122;5.250;2023-03-01T01:58:04;103144.0;;;-0.18;96.06
62458;BME280;48509;52.122;5.250;2023-03-01T01:59:45;103145.0;;;-0.18;95.37
62458;BME280;48509;52.122;5.250;2023-03-01T02:01:26;103140.00000000001;;;-0.06;94.89
62458;BME280;48509;52.122;5.250;2023-03-01T02:04:45;103144.0;;;0.02;94.17
62458;BME280;48509;52.122;5.250;2023-03-01T02:06:27;103142.0;;;-0.14;94.91
62458;BME280;48509;52.122;5.250;2023-03-01T02:08:06;103136.99999999999;;;-0.09;95.33
62458;BME280;48509;52.122;5.250;2023-03-01T02:09:46;103133.99999999999;;;-0.07;94.76
62458;BME280;48509;52.122;5.250;2023-03-01T02:13:03;103132.0;;;-0.21;95.45
62458;BME280;48509;52.122;5.250;2023-03-01T02:14:40;103133.99999999999;;;-0.17;94.77
62458;BME280;48509;52.122;5.250;2023-03-01T02:16:17;103134.99999999999;;;-0.16;95.37
62458;BME280;48509;52.122;5.250;2023-03-01T02:17:54;103134.99999999999;;;-0.19;95.39
62458;BME280;48509;52.122;5.250;2023-03-01T02:21:41;103134.99999999999;;;-0.28;95.78
62458;BME280;48509;52.122;5.250;2023-03-01T02:23:25;103134.99999999999;;;-0.28;95.52
62458;BME280;48509;52.122;5.250;2023-03-01T02:25:09;103130.0;;;-0.28;95.2
62458;BME280;48509;52.122;5.250;2023-03-01T02:26:53;103133.0;;;-0.21;94.7
62458;BME280;48509;52.122;5.250;2023-03-01T02:28:32;103132.0;;;-0.4;96.11
62458;BME280;48509;52.122;5.250;2023-03-01T02:31:47;103133.0;;;-0.34;95.69
62458;BME280;48509;52.122;5.250;2023-03-01T02:33:25;103130.0;;;-0.38;95.07
62458;BME280;48509;52.122;5.250;2023-03-01T02:35:02;103123.0;;;-0.38;95.57
62458;BME280;48509;52.122;5.250;2023-03-01T02:36:40;103124.0;;;-0.24;95.27
62458;BME280;48509;52.122;5.250;2023-03-01T02:39:59;103125.0;;;-0.32;95.11
62458;BME280;48509;52.122;5.250;2023-03-01T02:41:38;103120.0;;;-0.2;94.24
62458;BME280;48509;52.122;5.250;2023-03-01T02:43:19;103118.0;;;-0.33;94.45
62458;BME280;48509;52.122;5.250;2023-03-01T02:44:58;103115.00000000001;;;-0.28;94.62
62458;BME280;48509;52.122;5.250;2023-03-01T02:48:19;103113.00000000001;;;-0.38;95.42
62458;BME280;48509;52.122;5.250;2023-03-01T02:49:55;103111.99999999999;;;-0.34;95.42
62458;BME280;48509;52.122;5.250;2023-03-01T02:51:43;103114.00000000001;;;-0.2;94.67
62458;BME280;48509;52.122;5.250;2023-03-01T02:53:28;103107.0;;;-0.41;94.26
62458;BME280;48509;52.122;5.250;2023-03-01T02:56:50;103101.0;;;-0.36;94.46
62458;BME280;48509;52.122;5.250;2023-03-01T02:58:27;103106.0;;;-0.48;94.53
62458;BME280;48509;52.122;5.250;2023-03-01T03:00:05;103104.0;;;-0.54;95.05
62458;BME280;48509;52.122;5.250;2023-03-01T03:01:44;103099.0;;;-0.45;94.7
62458;BME280;48509;52.122;5.250;2023-03-01T03:04:57;103097.0;;;-0.5;94.85
62458;BME280;48509;52.122;5.250;2023-03-01T03:06:34;103097.0;;;-0.39;94.46
62458;BME280;48509;52.122;5.250;2023-03-01T03:08:10;103097.0;;;-0.59;95.12
62458;BME280;48509;52.122;5.250;2023-03-01T03:11:22;103096.0;;;-0.38;94.57
62458;BME280;48509;52.122;5.250;2023-03-01T03:13:00;103094.0;;;-0.4;94.56
62458;BME280;48509;52.122;5.250;2023-03-01T03:14:37;103096.0;;;-0.44;94.34
62458;BME280;48509;52.122;5.250;2023-03-01T03:17:51;103093.0;;;-0.55;94.95
62458;BME280;48509;52.122;5.250;2023-03-01T03:19:28;103091.00000000001;;;-0.46;94.72
62458;BME280;48509;52.122;5.250;2023-03-01T03:21:07;103095.0;;;-0.18;93.79
62458;BME280;48509;52.122;5.250;2023-03-01T03:22:43;103092.0;;;-0.27;93.63
62458;BME280;48509;52.122;5.250;2023-03-01T03:25:55;103089.00000000001;;;-0.38;93.85
62458;BME280;48509;52.122;5.250;2023-03-01T03:27:32;103084.99999999999;;;-0.53;94.29
62458;BME280;48509;52.122;5.250;2023-03-01T03:29:08;103074.0;;;-0.48;94.4
62458;BME280;48509;52.122;5.250;2023-03-01T03:32:20;103074.0;;;-0.56;94.65
62458;BME280;48509;52.122;5.250;2023-03-01T03:33:56;103071.0;;;-0.42;94.15
62458;BME280;48509;52.122;5.250;2023-03-01T03:35:37;103075.0;;;-0.45;93.61
62458;BME280;48509;52.122;5.250;2023-03-01T03:37:15;103073.0;;;-0.45;93.79
62458;BME280;48509;52.122;5.250;2023-03-01T03:40:29;103078.0;;;-0.67;94.76
62458;BME280;48509;52.122;5.250;2023-03-01T03:42:08;103075.0;;;-0.75;95.97
62458;BME280;48509;52.122;5.250;2023-03-01T03:43:44;103071.0;;;-0.79;96.38
62458;BME280;48509;52.122;5.250;2023-03-01T03:46:56;103075.0;;;-0.65;95.71
62458;BME280;48509;52.122;5.250;2023-03-01T03:48:33;103075.0;;;-0.66;95.94
62458;BME280;48509;52.122;5.250;2023-03-01T03:50:10;103067.0;;;-0.79;95.99
62458;BME280;48509;52.122;5.250;2023-03-01T03:53:25;103069.0;;;-0.79;95.82
62458;BME280;48509;52.122;5.250;2023-03-01T03:55:04;103070.0;;;-0.67;94.41
62458;BME280;48509;52.122;5.250;2023-03-01T03:56:40;103061.99999999999;;;-0.8;94.75
62458;BME280;48509;52.122;5.250;2023-03-01T03:58:17;103063.00000000001;;;-0.83;94.73
62458;BME280;48509;52.122;5.250;2023-03-01T04:01:31;103059.99999999999;;;-0.87;95.58
62458;BME280;48509;52.122;5.250;2023-03-01T04:03:08;103064.00000000001;;;-0.91;96.36
62458;BME280;48509;52.122;5.250;2023-03-01T04:04:45;103063.00000000001;;;-0.97;96.25
62458;BME280;48509;52.122;5.250;2023-03-01T04:07:59;103063.00000000001;;;-0.94;95.85
62458;BME280;48509;52.122;5.250;2023-03-01T04:09:35;103069.0;;;-0.93;96.25
62458;BME280;48509;52.122;5.250;2023-03-01T04:11:12;103074.0;;;-0.92;96.96
62458;BME280;48509;52.122;5.250;2023-03-01T04:12:48;103075.0;;;-0.65;94.87
62458;BME280;48509;52.122;5.250;2023-03-01T04:16:01;103074.0;;;-0.73;95.37
62458;BME280;48509;52.122;5.250;2023-03-01T04:17:37;103069.0;;;-0.83;95.2
62458;BME280;48509;52.122;5.250;2023-03-01T04:19:13;103071.0;;;-0.55;94.75
62458;BME280;48509;52.122;5.250;2023-03-01T04:22:26;103071.0;;;-0.79;95.19
62458;BME280;48509;52.122;5.250;2023-03-01T04:24:03;103066.00000000001;;;-0.74;94.69
62458;BME280;48509;52.122;5.250;2023-03-01T04:25:40;103069.0;;;-0.79;94.5
62458;BME280;48509;52.122;5.250;2023-03-01T04:28:54;103071.0;;;-0.9;95.02
62458;BME280;48509;52.122;5.250;2023-03-01T04:30:30;103071.0;;;-0.89;95.34
62458;BME280;48509;52.122;5.250;2023-03-01T04:32:06;103075.0;;;-0.69;93.89
62458;BME280;48509;52.122;5.250;2023-03-01T04:33:44;103071.0;;;-0.94;94.68
62458;BME280;48509;52.122;5.250;2023-03-01T04:36:56;103071.0;;;-0.94;94.82
62458;BME280;48509;52.122;5.250;2023-03-01T04:38:33;103076.0;;;-1.04;95.95
62458;BME280;48509;52.122;5.250;2023-03-01T04:40:10;103073.0;;;-1.07;96.16
62458;BME280;48509;52.122;5.250;2023-03-01T04:43:23;103076.0;;;-1.11;97.04
62458;BME280;48509;52.122;5.250;2023-03-01T04:44:59;103074.0;;;-1.09;96.11
62458;BME280;48509;52.122;5.250;2023-03-01T04:46:36;103068.0;;;-1.08;95.87
62458;BME280;48509;52.122;5.250;2023-03-01T04:49:49;103067.0;;;-1.08;95.91
62458;BME280;48509;52.122;5.250;2023-03-01T04:51:25;103067.0;;;-1.09;95.71
62458;BME280;48509;52.122;5.250;2023-03-01T04:53:01;103064.00000000001;;;-0.98;95.33
62458;BME280;48509;52.122;5.250;2023-03-01T04:54:38;103057.0;;;-0.84;94.04
62458;BME280;48509;52.122;5.250;2023-03-01T04:57:52;103052.0;;;-1.02;94.6
62458;BME280;48509;52.122;5.250;2023-03-01T04:59:29;103048.0;;;-1.03;94.64
62458;BME280;48509;52.122;5.250;2023-03-01T05:01:09;103046.0;;;-1.07;95.13
62458;BME280;48509;52.122;5.250;2023-03-01T05:04:24;103036.99999999999;;;-1.11;95.33
62458;BME280;48509;52.122;5.250;2023-03-01T05:06:00;103042.0;;;-1.12;94.97
62458;BME280;48509;52.122;5.250;2023-03-01T05:07:36;103042.0;;;-1.11;94.87
62458;BME280;48509;52.122;5.250;2023-03-01T05:10:50;103042.0;;;-1.1;94.68
62458;BME280;48509;52.122;5.250;2023-03-01T05:12:28;103041.00000000001;;;-1.23;95.34
62458;BME280;48509;52.122;5.250;2023-03-01T05:15:42;103030.0;;;-1.31;95.34
62458;BME280;48509;52.122;5.250;2023-03-01T05:18:54;103030.0;;;-1.24;94.5
62458;BME280;48509;52.122;5.250;2023-03-01T05:20:30;103029.0;;;-1.26;94.81
62458;BME280;48509;52.122;5.250;2023-03-01T05:22:07;103029.0;;;-1.34;95.4
62458;BME280;48509;52.122;5.250;2023-03-01T05:25:20;103025.0;;;-1.28;94.76
62458;BME280;48509;52.122;5.250;2023-03-01T05:26:57;103023.0;;;-1.32;95.2
62458;BME280;48509;52.122;5.250;2023-03-01T05:28:35;103014.00000000001;;;-1.23;95.16
62458;BME280;48509;52.122;5.250;2023-03-01T05:30:12;103011.99999999999;;;-1.2;94.89
62458;BME280;48509;52.122;5.250;2023-03-01T05:33:25;103004.0;;;-1.23;95.0
62458;BME280;48509;52.122;5.250;2023-03-01T05:35:03;103006.0;;;-1.2;94.48
62458;BME280;48509;52.122;5.250;2023-03-01T05:36:40;103000.0;;;-1.37;95.46
62458;BME280;48509;52.122;5.250;2023-03-01T05:39:52;102999.0;;;-1.39;95.63
62458;BME280;48509;52.122;5.250;2023-03-01T05:41:28;102998.0;;;-1.46;95.85
62458;BME280;48509;52.122;5.250;2023-03-01T05:43:05;102997.0;;;-1.5;95.96
62458;BME280;48509;52.122;5.250;2023-03-01T05:46:18;102996.0;;;-1.43;95.27
62458;BME280;48509;52.122;5.250;2023-03-01T05:47:54;102989.00000000001;;;-1.41;94.92
62458;BME280;48509;52.122;5.250;2023-03-01T05:49:31;102986.99999999999;;;-1.42;94.68
62458;BME280;48509;52.122;5.250;2023-03-01T05:51:07;102986.99999999999;;;-1.4;94.67
62458;BME280;48509;52.122;5.250;2023-03-01T05:54:21;102981.0;;;-1.48;94.81
62458;BME280;48509;52.122;5.250;2023-03-01T05:55:59;102986.99999999999;;;-1.53;95.41
62458;BME280;48509;52.122;5.250;2023-03-01T05:57:35;102989.00000000001;;;-1.52;95.05
62458;BME280;48509;52.122;5.250;2023-03-01T06:00:48;102983.0;;;-1.63;95.14
62458;BME280;48509;52.122;5.250;2023-03-01T06:02:24;102983.99999999999;;;-1.54;94.33
62458;BME280;48509;52.122;5.250;2023-03-01T06:04:00;102980.0;;;-1.55;94.53
62458;BME280;48509;52.122;5.250;2023-03-01T06:07:15;102975.0;;;-1.54;94.6
62458;BME280;48509;52.122;5.250;2023-03-01T06:08:52;102983.0;;;-1.53;94.67
62458;BME280;48509;52.122;5.250;2023-03-01T06:10:28;102989.00000000001;;;-1.58;95.17
62458;BME280;48509;52.122;5.250;2023-03-01T06:12:05;102988.00000000001;;;-1.57;95.79
62458;BME280;48509;52.122;5.250;2023-03-01T06:15:20;102986.99999999999;;;-1.56;95.43
62458;BME280;48509;52.122;5.250;2023-03-01T06:16:57;102979.0;;;-1.56;95.59
62458;BME280;48509;52.122;5.250;2023-03-01T06:18:34;102986.99999999999;;;-1.68;95.89
62458;BME280;48509;52.122;5.250;2023-03-01T06:21:50;102988.00000000001;;;-1.61;95.49
62458;BME280;48509;52.122;5.250;2023-03-01T06:23:26;102989.00000000001;;;-1.71;95.65
62458;BME280;48509;52.122;5.250;2023-03-01T06:25:04;102989.00000000001;;;-1.74;96.26
62458;BME280;48509;52.122;5.250;2023-03-01T06:26:40;102992.0;;;-1.62;95.9
62458;BME280;48509;52.122;5.250;2023-03-01T06:29:53;102995.0;;;-1.59;95.52
62458;BME280;48509;52.122;5.250;2023-03-01T06:31:29;102992.0;;;-1.58;95.29
62458;BME280;48509;52.122;5.250;2023-03-01T06:33:05;102993.0;;;-1.55;94.71
62458;BME280;48509;52.122;5.250;2023-03-01T06:36:17;102992.0;;;-1.61;94.13
62458;BME280;48509;52.122;5.250;2023-03-01T06:37:53;102992.0;;;-1.61;94.84
62458;BME280;48509;52.122;5.250;2023-03-01T06:39:29;102990.00000000001;;;-1.58;94.93
62458;BME280;48509;52.122;5.250;2023-03-01T06:42:47;102989.00000000001;;;-1.44;94.39
62458;BME280;48509;52.122;5.250;2023-03-01T06:44:26;102998.0;;;-1.59;95.48
62458;BME280;48509;52.122;5.250;2023-03-01T06:46:04;102996.0;;;-1.56;95.65
62458;BME280;48509;52.122;5.250;2023-03-01T06:47:40;102994.0;;;-1.55;95.19
62458;BME280;48509;52.122;5.250;2023-03-01T06:50:53;102995.0;;;-1.54;95.15
62458;BME280;48509;52.122;5.250;2023-03-01T06:52:30;102998.0;;;-1.61;95.54
62458;BME280;48509;52.122;5.250;2023-03-01T06:54:07;102994.0;;;-1.47;95.16
62458;BME280;48509;52.122;5.250;2023-03-01T06:57:19;102995.0;;;-1.35;94.96
62458;BME280;48509;52.122;5.250;2023-03-01T06:58:55;102999.0;;;-1.41;95.15
62458;BME280;48509;52.122;5.250;2023-03-01T07:00:32;102992.0;;;-1.31;95.03
62458;BME280;48509;52.122;5.250;2023-03-01T07:03:47;102991.00000000001;;;-1.41;95.3
62458;BME280;48509;52.122;5.250;2023-03-01T07:05:23;102992.0;;;-1.4;95.45
62458;BME280;48509;52.122;5.250;2023-03-01T07:06:59;102986.99999999999;;;-1.43;95.75
62458;BME280;48509;52.122;5.250;2023-03-01T07:08:35;102990.00000000001;;;-1.46;95.92
62458;BME280;48509;52.122;5.250;2023-03-01T07:11:49;102984.99999999999;;;-1.41;95.92
62458;BME280;48509;52.122;5.250;2023-03-01T07:13:26;102990.00000000001;;;-1.39;96.03
62458;BME280;48509;52.122;5.250;2023-03-01T07:15:03;102988.00000000001;;;-1.43;96.65
62458;BME280;48509;52.122;5.250;2023-03-01T07:18:16;102990.00000000001;;;-1.36;95.67
62458;BME280;48509;52.122;5.250;2023-03-01T07:19:52;102993.0;;;-1.34;95.75
62458;BME280;48509;52.122;5.250;2023-03-01T07:21:29;102989.00000000001;;;-1.34;96.09
62458;BME280;48509;52.122;5.250;2023-03-01T07:24:43;102994.0;;;-1.23;95.21
62458;BME280;48509;52.122;5.250;2023-03-01T07:26:19;102996.0;;;-1.21;95.46
62458;BME280;48509;52.122;5.250;2023-03-01T07:27:55;103001.0;;;-1.21;95.61
62458;BME280;48509;52.122;5.250;2023-03-01T07:29:31;103000.0;;;-1.13;95.93
62458;BME280;48509;52.122;5.250;2023-03-01T07:32:44;103000.0;;;-1.12;95.51
62458;BME280;48509;52.122;5.250;2023-03-01T07:34:20;103001.0;;;-1.09;95.27
62458;BME280;48509;52.122;5.250;2023-03-01T07:35:57;103002.0;;;-1.02;95.0
62458;BME280;48509;52.122;5.250;2023-03-01T07:39:09;103006.0;;;-0.98;95.21
62458;BME280;48509;52.122;5.250;2023-03-01T07:40:46;103004.0;;;-0.94;95.76
62458;BME280;48509;52.122;5.250;2023-03-01T07:42:23;103005.0;;;-0.96;95.66
62458;BME280;48509;52.122;5.250;2023-03-01T07:45:35;103005.0;;;-0.87;95.71
62458;BME280;48509;52.122;5.250;2023-03-01T07:47:11;103006.0;;;-0.77;95.58
62458;BME280;48509;52.122;5.250;2023-03-01T07:48:47;103011.99999999999;;;-0.85;96.89
62458;BME280;48509;52.122;5.250;2023-03-01T07:50:23;103011.99999999999;;;-0.7;96.21
62458;BME280;48509;52.122;5.250;2023-03-01T07:53:36;103009.99999999999;;;-0.69;96.38
62458;BME280;48509;52.122;5.250;2023-03-01T07:55:13;103006.0;;;-0.38;94.81
62458;BME280;48509;52.122;5.250;2023-03-01T07:56:50;103013.00000000001;;;-0.33;94.73
62458;BME280;48509;52.122;5.250;2023-03-01T08:00:03;103009.99999999999;;;-0.33;94.41
62458;BME280;48509;52.122;5.250;2023-03-01T08:01:40;103011.99999999999;;;-0.32;94.39
62458;BME280;48509;52.122;5.250;2023-03-01T08:03:17;103009.99999999999;;;-0.16;94.07
62458;BME280;48509;52.122;5.250;2023-03-01T08:06:29;103013.00000000001;;;-0.04;94.22
62458;BME280;48509;52.122;5.250;2023-03-01T08:08:05;103016.00000000001;;;0.15;93.98
62458;BME280;48509;52.122;5.250;2023-03-01T08:09:42;103009.99999999999;;;0.08;95.0
62458;BME280;48509;52.122;5.250;2023-03-01T08:11:18;103017.0;;;0.22;93.87
62458;BME280;48509;52.122;5.250;2023-03-01T08:14:30;103009.99999999999;;;0.34;94.17
62458;BME280;48509;52.122;5.250;2023-03-01T08:16:08;103009.99999999999;;;0.36;95.02
62458;BME280;48509;52.122;5.250;2023-03-01T08:17:48;103005.0;;;0.7;93.56
62458;BME280;48509;52.122;5.250;2023-03-01T08:21:03;103003.0;;;0.72;94.14
62458;BME280;48509;52.122;5.250;2023-03-01T08:22:40;103002.0;;;0.56;94.5
62458;BME280;48509;52.122;5.250;2023-03-01T08:24:16;102997.0;;;0.72;94.18
62458;BME280;48509;52.122;5.250;2023-03-01T08:27:28;102994.0;;;0.92;93.89
62458;BME280;48509;52.122;5.250;2023-03-01T08:29:05;102996.0;;;1.06;93.44
62458;BME280;48509;52.122;5.250;2023-03-01T08:30:41;102998.0;;;1.1;94.49
62458;BME280;48509;52.122;5.250;2023-03-01T08:32:17;102999.0;;;1.23;94.47
62458;BME280;48509;52.122;5.250;2023-03-01T08:35:33;102994.0;;;1.39;94.7
62458;BME280;48509;52.122;5.250;2023-03-01T08:37:09;102994.0;;;1.4;95.26
62458;BME280;48509;52.122;5.250;2023-03-01T08:38:45;102998.0;;;1.58;94.92
62458;BME280;48509;52.122;5.250;2023-03-01T08:41:58;102996.0;;;1.79;94.85
62458;BME280;48509;52.122;5.250;2023-03-01T08:43:34;102992.0;;;1.88;93.19
62458;BME280;48509;52.122;5.250;2023-03-01T08:45:11;102991.00000000001;;;1.88;94.04
62458;BME280;48509;52.122;5.250;2023-03-01T08:48:24;102984.99999999999;;;2.12;93.44
62458;BME280;48509;52.122;5.250;2023-03-01T08:50:01;102980.0;;;2.16;93.83
62458;BME280;48509;52.122;5.250;2023-03-01T08:51:38;102980.0;;;2.25;93.3
62458;BME280;48509;52.122;5.250;2023-03-01T08:53:15;102979.0;;;2.38;92.51
62458;BME280;48509;52.122;5.250;2023-03-01T08:56:27;102973.0;;;2.56;90.49
62458;BME280;48509;52.122;5.250;2023-03-01T08:58:03;102971.0;;;2.73;90.07
62458;BME280;48509;52.122;5.250;2023-03-01T08:59:39;102970.0;;;2.9;87.98
62458;BME280;48509;52.122;5.250;2023-03-01T09:02:55;102967.0;;;3.09;87.43
62458;BME280;48509;52.122;5.250;2023-03-01T09:04:31;102970.0;;;3.27;86.25
62458;BME280;48509;52.122;5.250;2023-03-01T09:06:08;102967.0;;;3.48;85.39
62458;BME280;48509;52.122;5.250;2023-03-01T09:07:44;102965.00000000001;;;3.61;80.41
62458;BME280;48509;52.122;5.250;2023-03-01T09:10:56;102958.99999999999;;;3.84;78.66
62458;BME280;48509;52.122;5.250;2023-03-01T09:12:33;102950.0;;;4.13;77.16
62458;BME280;48509;52.122;5.250;2023-03-01T09:14:09;102946.0;;;4.21;77.84
62458;BME280;48509;52.122;5.250;2023-03-01T09:17:21;102946.0;;;4.33;77.31
62458;BME280;48509;52.122;5.250;2023-03-01T09:18:57;102941.00000000001;;;4.45;76.64
62458;BME280;48509;52.122;5.250;2023-03-01T09:20:33;102942.0;;;4.49;73.78
62458;BME280;48509;52.122;5.250;2023-03-01T09:23:47;102939.00000000001;;;4.59;74.19
62458;BME280;48509;52.122;5.250;2023-03-01T09:25:24;102942.0;;;4.61;72.3
62458;BME280;48509;52.122;5.250;2023-03-01T09:27:00;102939.00000000001;;;4.66;72.78
62458;BME280;48509;52.122;5.250;2023-03-01T09:30:14;102933.99999999999;;;4.79;72.86
62458;BME280;48509;52.122;5.250;2023-03-01T09:31:50;102932.0;;;4.82;73.19
62458;BME280;48509;52.122;5.250;2023-03-01T09:33:26;102928.0;;;5.01;70.63
62458;BME280;48509;52.122;5.250;2023-03-01T09:35:04;102923.0;;;5.18;71.47
62458;BME280;48509;52.122;5.250;2023-03-01T09:38:16;102917.0;;;5.39;71.87
62458;BME280;48509;52.122;5.250;2023-03-01T09:39:52;102916.00000000001;;;5.64;69.14
62458;BME280;48509;52.122;5.250;2023-03-01T09:41:37;102914.00000000001;;;5.7;64.08
62458;BME280;48509;52.122;5.250;2023-03-01T09:43:40;102915.00000000001;;;5.87;65.44
62458;BME280;48509;52.122;5.250;2023-03-01T09:45:29;102906.0;;;5.94;65.66
62458;BME280;48509;52.122;5.250;2023-03-01T09:48:56;102908.0;;;6.11;64.94
62458;BME280;48509;52.122;5.250;2023-03-01T09:50:39;102906.0;;;6.18;64.94
62458;BME280;48509;52.122;5.250;2023-03-01T09:52:22;102906.0;;;6.27;62.7
62458;BME280;48509;52.122;5.250;2023-03-01T09:54:05;102908.0;;;6.52;63.65
62458;BME280;48509;52.122;5.250;2023-03-01T09:57:28;102908.0;;;6.61;61.32
62458;BME280;48509;52.122;5.250;2023-03-01T09:59:14;102915.00000000001;;;6.77;59.66
62458;BME280;48509;52.122;5.250;2023-03-01T10:01:03;102918.0;;;6.79;60.27
62458;BME280;48509;52.122;5.250;2023-03-01T10:02:49;102918.0;;;6.9;60.26
62458;BME280;48509;52.122;5.250;2023-03-01T10:04:34;102917.0;;;6.96;60.18
62458;BME280;48509;52.122;5.250;2023-03-01T10:08:06;102911.99999999999;;;6.92;61.04
62458;BME280;48509;52.122;5.250;2023-03-01T10:10:05;102914.00000000001;;;6.89;60.3
62458;BME280;48509;52.122;5.250;2023-03-01T10:11:43;102908.0;;;6.84;59.43
62458;BME280;48509;52.122;5.250;2023-03-01T10:13:24;102914.00000000001;;;6.89;60.47
62458;BME280;48509;52.122;5.250;2023-03-01T10:15:09;102917.0;;;6.83;60.54
62458;BME280;48509;52.122;5.250;2023-03-01T10:16:51;102916.00000000001;;;6.57;60.12
62458;BME280;48509;52.122;5.250;2023-03-01T10:20:15;102907.0;;;6.64;59.97
62458;BME280;48509;52.122;5.250;2023-03-01T10:22:03;102906.0;;;6.62;60.04
62458;BME280;48509;52.122;5.250;2023-03-01T10:23:46;102903.0;;;6.77;60.21
62458;BME280;48509;52.122;5.250;2023-03-01T10:25:42;102899.0;;;6.68;59.02
62458;BME280;48509;52.122;5.250;2023-03-01T10:27:24;102898.0;;;6.75;59.31
62458;BME280;48509;52.122;5.250;2023-03-01T10:30:40;102893.0;;;6.74;59.22
62458;BME280;48509;52.122;5.250;2023-03-01T10:32:17;102892.0;;;6.9;58.59
62458;BME280;48509;52.122;5.250;2023-03-01T10:33:55;102891.00000000001;;;6.8;59.23
62458;BME280;48509;52.122;5.250;2023-03-01T10:37:12;102891.00000000001;;;6.9;57.82
62458;BME280;48509;52.122;5.250;2023-03-01T10:38:50;102883.99999999999;;;7.01;56.59
62458;BME280;48509;52.122;5.250;2023-03-01T10:40:28;102886.99999999999;;;6.81;56.62
62458;BME280;48509;52.122;5.250;2023-03-01T10:42:05;102882.0;;;7.06;57.24